createdAt,value
2019-01-10T00:00:20.886Z,0
2019-01-10T00:01:20.968Z,0
2019-01-10T00:02:21.175Z,0
2019-01-10T00:03:21.068Z,0
2019-01-10T00:04:20.805Z,0
2019-01-10T00:05:20.791Z,0
2019-01-10T00:06:21.019Z,0
2019-01-10T00:07:20.998Z,0
2019-01-10T00:08:20.974Z,0
2019-01-10T00:09:20.955Z,0
2019-01-10T00:10:23.212Z,0
2019-01-10T00:11:20.915Z,0
2019-01-10T00:12:20.647Z,0
2019-01-10T00:13:20.874Z,0
2019-01-10T00:14:20.608Z,0
2019-01-10T00:15:20.831Z,0
2019-01-10T00:16:20.820Z,0
2019-01-10T00:17:20.302Z,0
2019-01-10T00:18:20.775Z,0
2019-01-10T00:19:20.779Z,0
2019-01-10T00:20:20.738Z,0
2019-01-10T00:21:20.751Z,0
2019-01-10T00:22:20.734Z,0
2019-01-10T00:23:20.430Z,0
2019-01-10T00:24:20.403Z,0
2019-01-10T00:25:20.142Z,0
2019-01-10T00:26:20.615Z,0
2019-01-10T00:27:20.590Z,0
2019-01-10T00:28:20.331Z,0
2019-01-10T00:29:20.553Z,0
2019-01-10T00:30:20.390Z,0
2019-01-10T00:31:20.023Z,0
2019-01-10T00:32:20.501Z,0
2019-01-10T00:33:20.224Z,0
2019-01-10T00:34:20.451Z,0
2019-01-10T00:35:20.433Z,0
2019-01-10T00:36:20.428Z,0
2019-01-10T00:37:20.402Z,0
2019-01-10T00:38:20.390Z,0
2019-01-10T00:39:20.364Z,0
2019-01-10T00:40:20.339Z,0
2019-01-10T00:41:20.323Z,0
2019-01-10T00:42:20.047Z,0
2019-01-10T00:43:20.276Z,0
2019-01-10T00:44:20.258Z,0
2019-01-10T00:45:20.246Z,0
2019-01-10T00:46:19.974Z,0
2019-01-10T00:47:19.950Z,0
2019-01-10T00:48:20.174Z,0
2019-01-10T00:49:20.156Z,0
2019-01-10T00:50:20.149Z,0
2019-01-10T00:51:19.377Z,0
2019-01-10T00:52:19.607Z,0
2019-01-10T00:53:20.077Z,0
2019-01-10T00:54:19.805Z,0
2019-01-10T00:55:20.035Z,0
2019-01-10T00:56:20.019Z,0
2019-01-10T00:57:19.749Z,0
2019-01-10T00:58:19.729Z,0
2019-01-10T00:59:19.712Z,0
2019-01-10T01:00:19.689Z,0
2019-01-10T01:01:19.917Z,0
2019-01-10T01:02:19.406Z,0
2019-01-10T01:03:19.880Z,0
2019-01-10T01:04:19.863Z,0
2019-01-10T01:05:19.600Z,0
2019-01-10T01:06:20.608Z,0
2019-01-10T01:07:19.550Z,0
2019-01-10T01:08:19.776Z,0
2019-01-10T01:09:19.762Z,0
2019-01-10T01:10:19.757Z,0
2019-01-10T01:11:19.722Z,0
2019-01-10T01:12:19.452Z,0
2019-01-10T01:13:19.682Z,0
2019-01-10T01:14:19.666Z,0
2019-01-10T01:15:19.390Z,0
2019-01-10T01:16:19.623Z,0
2019-01-10T01:17:20.481Z,0
2019-01-10T01:18:19.579Z,0
2019-01-10T01:19:19.561Z,0
2019-01-10T01:20:19.388Z,0
2019-01-10T01:21:19.521Z,0
2019-01-10T01:22:19.499Z,0
2019-01-10T01:23:19.240Z,0
2019-01-10T01:24:21.365Z,0
2019-01-10T01:25:19.443Z,0
2019-01-10T01:26:19.434Z,0
2019-01-10T01:27:19.402Z,0
2019-01-10T01:28:19.392Z,0
2019-01-10T01:29:20.967Z,0
2019-01-10T01:30:19.092Z,0
2019-01-10T01:31:19.320Z,0
2019-01-10T01:32:19.323Z,0
2019-01-10T01:33:19.281Z,0
2019-01-10T01:34:19.028Z,0
2019-01-10T01:35:18.993Z,0
2019-01-10T01:36:18.971Z,0
2019-01-10T01:37:19.205Z,0
2019-01-10T01:38:18.927Z,0
2019-01-10T01:39:19.169Z,0
2019-01-10T01:40:18.898Z,0
2019-01-10T01:41:18.886Z,0
2019-01-10T01:42:19.099Z,0
2019-01-10T01:43:18.839Z,0
2019-01-10T01:44:19.070Z,0
2019-01-10T01:45:19.047Z,0
2019-01-10T01:46:19.025Z,0
2019-01-10T01:47:19.007Z,0
2019-01-10T01:48:18.983Z,0
2019-01-10T01:49:18.978Z,0
2019-01-10T01:50:19.038Z,0
2019-01-10T01:51:18.915Z,0
2019-01-10T01:52:18.851Z,0
2019-01-10T01:53:18.890Z,0
2019-01-10T01:54:18.615Z,0
2019-01-10T01:55:18.841Z,0
2019-01-10T01:56:18.821Z,0
2019-01-10T01:57:18.815Z,0
2019-01-10T01:58:18.878Z,0
2019-01-10T01:59:18.274Z,0
2019-01-10T02:00:18.757Z,0
2019-01-10T02:01:18.724Z,0
2019-01-10T02:02:18.709Z,0
2019-01-10T02:03:18.691Z,0
2019-01-10T02:04:18.665Z,0
2019-01-10T02:05:18.643Z,0
2019-01-10T02:06:18.623Z,0
2019-01-10T02:07:18.357Z,0
2019-01-10T02:08:18.583Z,0
2019-01-10T02:09:18.566Z,0
2019-01-10T02:10:18.545Z,0
2019-01-10T02:11:18.278Z,0
2019-01-10T02:12:18.507Z,0
2019-01-10T02:13:26.198Z,0
2019-01-10T02:14:18.477Z,0
2019-01-10T02:15:19.178Z,0
2019-01-10T02:16:18.181Z,0
2019-01-10T02:17:18.407Z,0
2019-01-10T02:18:18.145Z,0
2019-01-10T02:19:17.865Z,0
2019-01-10T02:20:17.880Z,0
2019-01-10T02:21:18.326Z,0
2019-01-10T02:22:18.309Z,0
2019-01-10T02:23:18.290Z,0
2019-01-10T02:24:17.766Z,0
2019-01-10T02:25:18.251Z,0
2019-01-10T02:26:17.985Z,0
2019-01-10T02:27:18.211Z,0
2019-01-10T02:28:18.282Z,0
2019-01-10T02:29:18.272Z,0
2019-01-10T02:30:18.168Z,0
2019-01-10T02:31:18.144Z,0
2019-01-10T02:32:17.861Z,0
2019-01-10T02:33:18.104Z,0
2019-01-10T02:34:17.836Z,0
2019-01-10T02:35:17.797Z,0
2019-01-10T02:36:18.038Z,0
2019-01-10T02:37:18.032Z,0
2019-01-10T02:38:17.755Z,0
2019-01-10T02:39:17.969Z,0
2019-01-10T02:40:17.851Z,0
2019-01-10T02:41:17.928Z,0
2019-01-10T02:42:17.915Z,0
2019-01-10T02:43:26.263Z,0
2019-01-10T02:44:17.873Z,0
2019-01-10T02:45:17.850Z,0
2019-01-10T02:46:17.838Z,0
2019-01-10T02:47:17.561Z,0
2019-01-10T02:48:19.481Z,0
2019-01-10T02:49:17.517Z,0
2019-01-10T02:50:17.758Z,0
2019-01-10T02:51:17.751Z,0
2019-01-10T02:52:17.716Z,0
2019-01-10T02:53:17.715Z,0
2019-01-10T02:54:17.448Z,0
2019-01-10T02:55:17.663Z,0
2019-01-10T02:56:17.629Z,0
2019-01-10T02:57:17.610Z,0
2019-01-10T02:58:17.348Z,0
2019-01-10T02:59:17.681Z,0
2019-01-10T03:00:17.554Z,0
2019-01-10T03:01:17.539Z,0
2019-01-10T03:02:17.263Z,0
2019-01-10T03:03:17.486Z,0
2019-01-10T03:04:17.499Z,0
2019-01-10T03:05:17.207Z,0
2019-01-10T03:06:17.437Z,0
2019-01-10T03:07:17.423Z,0
2019-01-10T03:08:17.491Z,0
2019-01-10T03:09:17.510Z,0
2019-01-10T03:10:17.353Z,0
2019-01-10T03:11:17.406Z,0
2019-01-10T03:12:17.331Z,0
2019-01-10T03:13:17.293Z,0
2019-01-10T03:14:17.266Z,0
2019-01-10T03:15:17.252Z,0
2019-01-10T03:16:17.236Z,0
2019-01-10T03:17:17.266Z,0
2019-01-10T03:18:17.191Z,0
2019-01-10T03:19:17.172Z,0
2019-01-10T03:20:16.909Z,0
2019-01-10T03:21:16.995Z,0
2019-01-10T03:22:16.883Z,0
2019-01-10T03:23:16.883Z,0
2019-01-10T03:24:17.088Z,0
2019-01-10T03:25:17.130Z,0
2019-01-10T03:26:17.050Z,0
2019-01-10T03:27:16.532Z,0
2019-01-10T03:28:16.751Z,0
2019-01-10T03:29:18.733Z,0
2019-01-10T03:30:16.979Z,0
2019-01-10T03:31:16.988Z,0
2019-01-10T03:32:16.938Z,0
2019-01-10T03:33:16.954Z,0
2019-01-10T03:34:16.892Z,0
2019-01-10T03:35:16.863Z,0
2019-01-10T03:36:16.840Z,0
2019-01-10T03:37:16.809Z,0
2019-01-10T03:38:16.846Z,0
2019-01-10T03:39:16.525Z,0
2019-01-10T03:40:16.527Z,0
2019-01-10T03:41:16.776Z,0
2019-01-10T03:42:16.475Z,0
2019-01-10T03:43:16.449Z,0
2019-01-10T03:44:16.799Z,0
2019-01-10T03:45:16.415Z,0
2019-01-10T03:46:16.631Z,0
2019-01-10T03:47:16.620Z,0
2019-01-10T03:48:16.591Z,0
2019-01-10T03:49:16.684Z,0
2019-01-10T03:50:16.074Z,0
2019-01-10T03:51:16.536Z,0
2019-01-10T03:52:16.304Z,0
2019-01-10T03:53:16.279Z,0
2019-01-10T03:54:16.506Z,0
2019-01-10T03:55:16.478Z,0
2019-01-10T03:56:16.190Z,0
2019-01-10T03:57:16.437Z,0
2019-01-10T03:58:16.394Z,0
2019-01-10T03:59:16.372Z,0
2019-01-10T04:00:16.359Z,0
2019-01-10T04:01:16.392Z,0
2019-01-10T04:02:16.155Z,0
2019-01-10T04:03:16.068Z,0
2019-01-10T04:04:16.279Z,0
2019-01-10T04:05:15.809Z,0
2019-01-10T04:06:16.256Z,0
2019-01-10T04:07:15.969Z,0
2019-01-10T04:08:15.963Z,0
2019-01-10T04:09:15.951Z,0
2019-01-10T04:10:16.158Z,0
2019-01-10T04:11:16.145Z,0
2019-01-10T04:12:16.124Z,0
2019-01-10T04:13:15.840Z,0
2019-01-10T04:14:15.824Z,0
2019-01-10T04:15:16.178Z,0
2019-01-10T04:16:15.803Z,0
2019-01-10T04:17:16.021Z,0
2019-01-10T04:18:15.742Z,0
2019-01-10T04:19:15.980Z,0
2019-01-10T04:20:15.976Z,0
2019-01-10T04:21:26.407Z,0
2019-01-10T04:22:15.951Z,0
2019-01-10T04:23:15.905Z,0
2019-01-10T04:24:15.878Z,0
2019-01-10T04:25:15.363Z,0
2019-01-10T04:26:15.680Z,0
2019-01-10T04:27:15.820Z,0
2019-01-10T04:28:15.552Z,0
2019-01-10T04:29:15.814Z,0
2019-01-10T04:30:15.839Z,0
2019-01-10T04:31:15.510Z,0
2019-01-10T04:32:15.721Z,0
2019-01-10T04:33:15.699Z,0
2019-01-10T04:34:15.340Z,0
2019-01-10T04:35:15.413Z,0
2019-01-10T04:36:15.522Z,0
2019-01-10T04:37:15.404Z,0
2019-01-10T04:38:15.601Z,0
2019-01-10T04:39:15.330Z,0
2019-01-10T04:40:15.554Z,0
2019-01-10T04:41:15.546Z,0
2019-01-10T04:42:15.282Z,0
2019-01-10T04:43:14.999Z,0
2019-01-10T04:44:16.930Z,0
2019-01-10T04:45:14.958Z,0
2019-01-10T04:46:15.435Z,0
2019-01-10T04:47:15.412Z,0
2019-01-10T04:48:15.160Z,0
2019-01-10T04:49:15.377Z,0
2019-01-10T04:50:15.351Z,0
2019-01-10T04:51:15.345Z,0
2019-01-10T04:52:16.466Z,0
2019-01-10T04:53:15.306Z,0
2019-01-10T04:54:14.801Z,0
2019-01-10T04:55:15.292Z,0
2019-01-10T04:56:15.002Z,0
2019-01-10T04:57:15.221Z,0
2019-01-10T04:58:15.355Z,0
2019-01-10T04:59:16.910Z,0
2019-01-10T05:00:14.916Z,0
2019-01-10T05:01:15.130Z,0
2019-01-10T05:02:25.450Z,0
2019-01-10T05:03:15.095Z,0
2019-01-10T05:04:14.579Z,0
2019-01-10T05:05:14.809Z,0
2019-01-10T05:06:14.296Z,0
2019-01-10T05:07:15.014Z,0
2019-01-10T05:08:14.747Z,0
2019-01-10T05:09:15.141Z,0
2019-01-10T05:10:14.992Z,0
2019-01-10T05:11:16.019Z,0
2019-01-10T05:12:15.047Z,0
2019-01-10T05:13:14.906Z,0
2019-01-10T05:14:23.515Z,0
2019-01-10T05:15:14.604Z,0
2019-01-10T05:16:14.848Z,0
2019-01-10T05:17:14.810Z,0
2019-01-10T05:18:15.179Z,0
2019-01-10T05:19:14.773Z,0
2019-01-10T05:20:14.757Z,0
2019-01-10T05:21:14.508Z,0
2019-01-10T05:22:14.456Z,0
2019-01-10T05:23:14.455Z,0
2019-01-10T05:24:14.664Z,0
2019-01-10T05:25:14.407Z,0
2019-01-10T05:26:14.637Z,0
2019-01-10T05:27:14.605Z,0
2019-01-10T05:28:14.588Z,0
2019-01-10T05:29:14.579Z,0
2019-01-10T05:30:14.306Z,0
2019-01-10T05:31:14.281Z,0
2019-01-10T05:32:14.284Z,0
2019-01-10T05:33:14.237Z,0
2019-01-10T05:34:14.468Z,0
2019-01-10T05:35:14.539Z,0
2019-01-10T05:36:14.427Z,0
2019-01-10T05:37:15.547Z,0
2019-01-10T05:38:14.133Z,0
2019-01-10T05:39:14.360Z,0
2019-01-10T05:40:14.103Z,0
2019-01-10T05:41:13.827Z,0
2019-01-10T05:42:16.079Z,0
2019-01-10T05:43:14.313Z,0
2019-01-10T05:44:14.265Z,0
2019-01-10T05:45:14.254Z,0
2019-01-10T05:46:14.216Z,0
2019-01-10T05:47:14.206Z,0
2019-01-10T05:48:14.242Z,0
2019-01-10T05:49:14.167Z,0
2019-01-10T05:50:14.149Z,0
2019-01-10T05:51:14.190Z,0
2019-01-10T05:52:14.241Z,0
2019-01-10T05:53:13.887Z,0
2019-01-10T05:54:14.062Z,0
2019-01-10T05:55:14.050Z,0
2019-01-10T05:56:22.441Z,0
2019-01-10T05:57:14.011Z,0
2019-01-10T05:58:13.979Z,0
2019-01-10T05:59:13.959Z,0
2019-01-10T06:00:13.941Z,0
2019-01-10T06:01:13.923Z,0
2019-01-10T06:02:13.893Z,0
2019-01-10T06:03:13.879Z,0
2019-01-10T06:04:13.608Z,0
2019-01-10T06:05:15.391Z,0
2019-01-10T06:06:13.813Z,0
2019-01-10T06:07:13.789Z,0
2019-01-10T06:08:13.772Z,0
2019-01-10T06:09:13.262Z,0
2019-01-10T06:10:13.592Z,0
2019-01-10T06:11:13.223Z,0
2019-01-10T06:12:12.705Z,0
2019-01-10T06:13:13.426Z,0
2019-01-10T06:14:13.658Z,0
2019-01-10T06:15:13.637Z,0
2019-01-10T06:16:13.365Z,0
2019-01-10T06:17:13.602Z,0
2019-01-10T06:18:13.568Z,0
2019-01-10T06:19:13.552Z,0
2019-01-10T06:20:13.544Z,0
2019-01-10T06:21:13.542Z,0
2019-01-10T06:22:13.504Z,0
2019-01-10T06:23:13.472Z,0
2019-01-10T06:24:13.442Z,0
2019-01-10T06:25:13.475Z,0
2019-01-10T06:26:12.917Z,0
2019-01-10T06:27:13.399Z,0
2019-01-10T06:28:13.423Z,0
2019-01-10T06:29:13.343Z,0
2019-01-10T06:30:13.329Z,0
2019-01-10T06:31:13.305Z,0
2019-01-10T06:32:13.363Z,0
2019-01-10T06:33:13.357Z,0
2019-01-10T06:34:13.744Z,0
2019-01-10T06:35:12.977Z,0
2019-01-10T06:36:13.242Z,0
2019-01-10T06:37:12.937Z,0
2019-01-10T06:38:12.910Z,0
2019-01-10T06:39:12.972Z,0
2019-01-10T06:40:12.877Z,0
2019-01-10T06:41:13.109Z,0
2019-01-10T06:42:12.893Z,0
2019-01-10T06:43:13.061Z,0
2019-01-10T06:44:13.042Z,0
2019-01-10T06:45:13.018Z,0
2019-01-10T06:46:13.001Z,0
2019-01-10T06:47:12.477Z,0
2019-01-10T06:48:12.955Z,0
2019-01-10T06:49:12.950Z,0
2019-01-10T06:50:12.701Z,0
2019-01-10T06:51:12.894Z,0
2019-01-10T06:52:12.871Z,0
2019-01-10T06:53:12.858Z,0
2019-01-10T06:54:12.830Z,0
2019-01-10T06:55:12.816Z,0
2019-01-10T06:56:12.546Z,0
2019-01-10T06:57:12.776Z,0
2019-01-10T06:58:12.748Z,0
2019-01-10T06:59:12.483Z,0
2019-01-10T07:00:12.713Z,0
2019-01-10T07:01:12.692Z,0
2019-01-10T07:02:13.972Z,0
2019-01-10T07:03:12.400Z,0
2019-01-10T07:04:12.661Z,0
2019-01-10T07:05:13.658Z,0
2019-01-10T07:06:12.589Z,0
2019-01-10T07:07:12.566Z,0
2019-01-10T07:08:12.558Z,0
2019-01-10T07:09:12.278Z,0
2019-01-10T07:10:12.512Z,0
2019-01-10T07:11:12.483Z,0
2019-01-10T07:12:12.772Z,0
2019-01-10T07:13:12.448Z,0
2019-01-10T07:14:12.434Z,0
2019-01-10T07:15:12.405Z,5
2019-01-10T07:16:12.381Z,5
2019-01-10T07:17:12.362Z,5
2019-01-10T07:18:12.347Z,5
2019-01-10T07:19:12.325Z,5
2019-01-10T07:20:12.302Z,5
2019-01-10T07:21:12.285Z,5
2019-01-10T07:22:12.370Z,5
2019-01-10T07:23:11.750Z,5
2019-01-10T07:24:11.971Z,5
2019-01-10T07:25:12.208Z,5
2019-01-10T07:26:12.183Z,5
2019-01-10T07:27:11.660Z,5
2019-01-10T07:28:12.138Z,5
2019-01-10T07:29:12.135Z,10
2019-01-10T07:30:12.109Z,10
2019-01-10T07:31:12.077Z,10
2019-01-10T07:32:11.819Z,10
2019-01-10T07:33:11.845Z,10
2019-01-10T07:34:12.016Z,10
2019-01-10T07:35:12.004Z,10
2019-01-10T07:36:11.782Z,10
2019-01-10T07:37:20.147Z,10
2019-01-10T07:38:11.933Z,10
2019-01-10T07:39:11.922Z,15
2019-01-10T07:40:11.903Z,15
2019-01-10T07:41:11.872Z,15
2019-01-10T07:42:11.858Z,15
2019-01-10T07:43:11.840Z,15
2019-01-10T07:44:12.591Z,15
2019-01-10T07:45:12.353Z,15
2019-01-10T07:46:11.772Z,15
2019-01-10T07:47:13.068Z,15
2019-01-10T07:48:11.736Z,15
2019-01-10T07:49:11.710Z,15
2019-01-10T07:50:11.688Z,15
2019-01-10T07:51:11.447Z,20
2019-01-10T07:52:11.648Z,20
2019-01-10T07:53:11.728Z,20
2019-01-10T07:54:11.365Z,20
2019-01-10T07:55:11.351Z,20
2019-01-10T07:56:11.691Z,20
2019-01-10T07:57:11.555Z,20
2019-01-10T07:58:11.047Z,20
2019-01-10T07:59:11.504Z,20
2019-01-10T08:00:11.016Z,20
2019-01-10T08:01:11.482Z,20
2019-01-10T08:02:11.203Z,20
2019-01-10T08:03:13.086Z,20
2019-01-10T08:04:11.403Z,20
2019-01-10T08:05:11.135Z,20
2019-01-10T08:06:11.977Z,20
2019-01-10T08:07:11.100Z,20
2019-01-10T08:08:11.319Z,25
2019-01-10T08:09:11.424Z,25
2019-01-10T08:10:11.280Z,25
2019-01-10T08:11:11.375Z,25
2019-01-10T08:12:10.740Z,25
2019-01-10T08:13:11.274Z,20
2019-01-10T08:14:11.268Z,20
2019-01-10T08:15:18.763Z,20
2019-01-10T08:16:10.913Z,20
2019-01-10T08:17:18.498Z,20
2019-01-10T08:18:11.121Z,20
2019-01-10T08:19:11.098Z,20
2019-01-10T08:20:11.365Z,25
2019-01-10T08:21:11.055Z,25
2019-01-10T08:22:11.035Z,30
2019-01-10T08:23:11.016Z,30
2019-01-10T08:24:11.011Z,30
2019-01-10T08:25:10.987Z,30
2019-01-10T08:26:10.708Z,30
2019-01-10T08:27:10.931Z,35
2019-01-10T08:28:11.046Z,35
2019-01-10T08:29:10.682Z,35
2019-01-10T08:30:10.873Z,30
2019-01-10T08:31:10.858Z,35
2019-01-10T08:32:11.394Z,35
2019-01-10T08:33:10.824Z,35
2019-01-10T08:34:10.796Z,35
2019-01-10T08:35:10.778Z,35
2019-01-10T08:36:10.513Z,35
2019-01-10T08:37:12.193Z,40
2019-01-10T08:38:10.709Z,40
2019-01-10T08:39:10.696Z,40
2019-01-10T08:40:10.677Z,35
2019-01-10T08:41:10.651Z,40
2019-01-10T08:42:10.878Z,40
2019-01-10T08:43:11.816Z,45
2019-01-10T08:44:10.697Z,45
2019-01-10T08:45:10.469Z,45
2019-01-10T08:46:10.548Z,45
2019-01-10T08:47:10.534Z,50
2019-01-10T08:48:10.013Z,50
2019-01-10T08:49:10.491Z,50
2019-01-10T08:50:10.478Z,50
2019-01-10T08:51:10.541Z,50
2019-01-10T08:52:10.428Z,50
2019-01-10T08:53:10.158Z,55
2019-01-10T08:54:10.386Z,50
2019-01-10T08:55:10.367Z,50
2019-01-10T08:56:10.099Z,55
2019-01-10T08:57:10.328Z,55
2019-01-10T08:58:10.061Z,60
2019-01-10T08:59:10.037Z,55
2019-01-10T09:00:12.099Z,55
2019-01-10T09:01:10.253Z,55
2019-01-10T09:02:10.231Z,55
2019-01-10T09:03:09.706Z,55
2019-01-10T09:04:09.945Z,55
2019-01-10T09:05:12.148Z,55
2019-01-10T09:06:17.669Z,50
2019-01-10T09:07:10.131Z,50
2019-01-10T09:08:10.117Z,45
2019-01-10T09:09:10.717Z,45
2019-01-10T09:10:10.067Z,45
2019-01-10T09:11:09.801Z,40
2019-01-10T09:12:09.853Z,40
2019-01-10T09:13:09.754Z,40
2019-01-10T09:14:11.904Z,40
2019-01-10T09:15:09.976Z,40
2019-01-10T09:16:11.567Z,35
2019-01-10T09:17:09.923Z,35
2019-01-10T09:18:09.898Z,35
2019-01-10T09:19:09.934Z,35
2019-01-10T09:20:09.375Z,35
2019-01-10T09:21:14.058Z,35
2019-01-10T09:22:09.770Z,35
2019-01-10T09:23:09.919Z,30
2019-01-10T09:24:09.534Z,30
2019-01-10T09:25:09.776Z,30
2019-01-10T09:26:09.742Z,35
2019-01-10T09:27:09.715Z,35
2019-01-10T09:28:09.702Z,30
2019-01-10T09:29:09.676Z,30
2019-01-10T09:30:09.793Z,30
2019-01-10T09:31:09.641Z,30
2019-01-10T09:32:09.612Z,35
2019-01-10T09:33:09.345Z,35
2019-01-10T09:34:09.572Z,35
2019-01-10T09:35:09.530Z,35
2019-01-10T09:36:09.552Z,35
2019-01-10T09:37:11.129Z,40
2019-01-10T09:38:09.007Z,40
2019-01-10T09:39:09.475Z,40
2019-01-10T09:40:09.205Z,40
2019-01-10T09:41:09.432Z,45
2019-01-10T09:42:09.414Z,45
2019-01-10T09:43:09.148Z,45
2019-01-10T09:44:10.886Z,45
2019-01-10T09:45:09.363Z,50
2019-01-10T09:46:09.333Z,50
2019-01-10T09:47:09.313Z,50
2019-01-10T09:48:09.047Z,55
2019-01-10T09:49:09.264Z,65
2019-01-10T09:50:09.262Z,75
2019-01-10T09:51:08.978Z,80
2019-01-10T09:52:08.965Z,80
2019-01-10T09:53:09.212Z,80
2019-01-10T09:54:09.164Z,80
2019-01-10T09:55:08.918Z,90
2019-01-10T09:56:09.133Z,85
2019-01-10T09:57:08.610Z,90
2019-01-10T09:58:09.440Z,90
2019-01-10T09:59:09.071Z,85
2019-01-10T10:00:09.058Z,80
2019-01-10T10:01:09.091Z,75
2019-01-10T10:02:09.004Z,70
2019-01-10T10:03:08.986Z,70
2019-01-10T10:04:08.711Z,65
2019-01-10T10:05:10.173Z,50
2019-01-10T10:06:17.353Z,50
2019-01-10T10:07:08.902Z,50
2019-01-10T10:08:08.666Z,50
2019-01-10T10:09:08.861Z,55
2019-01-10T10:10:09.081Z,65
2019-01-10T10:11:08.831Z,75
2019-01-10T10:12:08.801Z,80
2019-01-10T10:13:08.288Z,85
2019-01-10T10:14:08.765Z,90
2019-01-10T10:15:09.455Z,90
2019-01-10T10:16:08.475Z,90
2019-01-10T10:17:08.697Z,90
2019-01-10T10:18:08.681Z,90
2019-01-10T10:19:08.413Z,100
2019-01-10T10:20:08.721Z,100
2019-01-10T10:21:08.615Z,115
2019-01-10T10:22:08.602Z,105
2019-01-10T10:23:08.594Z,105
2019-01-10T10:24:08.553Z,100
2019-01-10T10:25:08.538Z,95
2019-01-10T10:26:08.525Z,95
2019-01-10T10:27:08.276Z,95
2019-01-10T10:28:08.488Z,105
2019-01-10T10:29:08.301Z,110
2019-01-10T10:30:08.436Z,105
2019-01-10T10:31:08.421Z,100
2019-01-10T10:32:08.399Z,105
2019-01-10T10:33:08.380Z,100
2019-01-10T10:34:07.858Z,95
2019-01-10T10:35:08.347Z,95
2019-01-10T10:36:08.313Z,95
2019-01-10T10:37:08.048Z,95
2019-01-10T10:38:08.104Z,90
2019-01-10T10:39:08.253Z,95
2019-01-10T10:40:08.239Z,100
2019-01-10T10:41:07.990Z,95
2019-01-10T10:42:08.209Z,95
2019-01-10T10:43:07.931Z,100
2019-01-10T10:44:07.921Z,125
2019-01-10T10:45:08.137Z,135
2019-01-10T10:46:11.240Z,140
2019-01-10T10:47:09.520Z,135
2019-01-10T10:48:07.838Z,140
2019-01-10T10:49:08.058Z,150
2019-01-10T10:50:07.914Z,160
2019-01-10T10:51:07.771Z,175
2019-01-10T10:52:07.755Z,180
2019-01-10T10:53:07.733Z,165
2019-01-10T10:54:07.956Z,155
2019-01-10T10:55:07.775Z,150
2019-01-10T10:56:07.798Z,150
2019-01-10T10:57:07.897Z,160
2019-01-10T10:58:07.630Z,145
2019-01-10T10:59:07.854Z,140
2019-01-10T11:00:07.854Z,130
2019-01-10T11:01:07.571Z,130
2019-01-10T11:02:07.805Z,135
2019-01-10T11:03:07.778Z,120
2019-01-10T11:04:07.518Z,115
2019-01-10T11:05:07.739Z,115
2019-01-10T11:06:07.716Z,105
2019-01-10T11:07:07.698Z,105
2019-01-10T11:08:07.681Z,110
2019-01-10T11:09:16.131Z,105
2019-01-10T11:10:07.418Z,100
2019-01-10T11:11:07.365Z,95
2019-01-10T11:12:07.100Z,95
2019-01-10T11:13:07.588Z,95
2019-01-10T11:14:07.653Z,95
2019-01-10T11:15:07.294Z,90
2019-01-10T11:16:14.968Z,90
2019-01-10T11:17:07.494Z,90
2019-01-10T11:18:07.483Z,90
2019-01-10T11:19:07.472Z,85
2019-01-10T11:20:07.197Z,85
2019-01-10T11:21:07.425Z,85
2019-01-10T11:22:07.411Z,80
2019-01-10T11:23:15.536Z,75
2019-01-10T11:24:07.357Z,75
2019-01-10T11:25:07.169Z,75
2019-01-10T11:26:07.321Z,75
2019-01-10T11:27:07.066Z,80
2019-01-10T11:28:07.276Z,85
2019-01-10T11:29:07.257Z,90
2019-01-10T11:30:07.264Z,95
2019-01-10T11:31:07.219Z,110
2019-01-10T11:32:15.431Z,120
2019-01-10T11:33:07.180Z,120
2019-01-10T11:34:07.166Z,115
2019-01-10T11:35:06.899Z,110
2019-01-10T11:36:07.206Z,115
2019-01-10T11:37:07.104Z,115
2019-01-10T11:38:07.083Z,115
2019-01-10T11:39:07.059Z,95
2019-01-10T11:40:07.040Z,95
2019-01-10T11:41:06.521Z,90
2019-01-10T11:42:06.757Z,85
2019-01-10T11:43:06.978Z,85
2019-01-10T11:44:06.957Z,80
2019-01-10T11:45:06.940Z,75
2019-01-10T11:46:06.923Z,70
2019-01-10T11:47:06.898Z,75
2019-01-10T11:48:06.631Z,65
2019-01-10T11:49:06.614Z,65
2019-01-10T11:50:06.857Z,65
2019-01-10T11:51:06.569Z,60
2019-01-10T11:52:06.849Z,65
2019-01-10T11:53:06.781Z,70
2019-01-10T11:54:06.519Z,70
2019-01-10T11:55:06.491Z,75
2019-01-10T11:56:06.726Z,65
2019-01-10T11:57:06.701Z,65
2019-01-10T11:58:06.673Z,65
2019-01-10T11:59:06.806Z,65
2019-01-10T12:00:06.390Z,75
2019-01-10T12:01:06.618Z,80
2019-01-10T12:02:06.603Z,85
2019-01-10T12:03:06.422Z,90
2019-01-10T12:04:06.554Z,85
2019-01-10T12:05:06.042Z,80
2019-01-10T12:06:06.507Z,80
2019-01-10T12:07:06.263Z,75
2019-01-10T12:08:06.237Z,80
2019-01-10T12:09:06.455Z,80
2019-01-10T12:10:06.433Z,75
2019-01-10T12:11:06.461Z,70
2019-01-10T12:12:06.499Z,70
2019-01-10T12:13:06.372Z,70
2019-01-10T12:14:06.358Z,65
2019-01-10T12:15:06.343Z,70
2019-01-10T12:16:06.319Z,75
2019-01-10T12:17:06.294Z,70
2019-01-10T12:18:06.275Z,75
2019-01-10T12:19:08.974Z,75
2019-01-10T12:20:05.979Z,85
2019-01-10T12:21:06.220Z,90
2019-01-10T12:22:06.194Z,90
2019-01-10T12:23:05.670Z,90
2019-01-10T12:24:06.157Z,90
2019-01-10T12:25:05.886Z,90
2019-01-10T12:26:06.108Z,90
2019-01-10T12:27:06.093Z,90
2019-01-10T12:28:06.070Z,90
2019-01-10T12:29:06.048Z,90
2019-01-10T12:30:06.018Z,90
2019-01-10T12:31:05.760Z,95
2019-01-10T12:32:05.990Z,100
2019-01-10T12:33:05.958Z,90
2019-01-10T12:34:05.957Z,90
2019-01-10T12:35:05.929Z,90
2019-01-10T12:36:05.912Z,95
2019-01-10T12:37:10.033Z,100
2019-01-10T12:38:05.858Z,105
2019-01-10T12:39:07.790Z,105
2019-01-10T12:40:05.588Z,95
2019-01-10T12:41:05.803Z,95
2019-01-10T12:42:05.556Z,90
2019-01-10T12:43:05.766Z,75
2019-01-10T12:44:06.444Z,70
2019-01-10T12:45:05.720Z,75
2019-01-10T12:46:05.997Z,75
2019-01-10T12:47:05.683Z,75
2019-01-10T12:48:06.448Z,70
2019-01-10T12:49:05.649Z,70
2019-01-10T12:50:05.624Z,65
2019-01-10T12:51:05.609Z,80
2019-01-10T12:52:05.344Z,90
2019-01-10T12:53:05.564Z,95
2019-01-10T12:54:05.391Z,100
2019-01-10T12:55:05.295Z,100
2019-01-10T12:56:05.501Z,95
2019-01-10T12:57:05.490Z,90
2019-01-10T12:58:05.462Z,85
2019-01-10T12:59:05.190Z,85
2019-01-10T13:00:04.944Z,85
2019-01-10T13:01:05.168Z,90
2019-01-10T13:02:07.077Z,85
2019-01-10T13:03:05.360Z,75
2019-01-10T13:04:05.093Z,75
2019-01-10T13:05:05.318Z,75
2019-01-10T13:06:05.052Z,80
2019-01-10T13:07:05.323Z,80
2019-01-10T13:08:13.171Z,75
2019-01-10T13:09:05.244Z,75
2019-01-10T13:10:05.636Z,75
2019-01-10T13:11:05.048Z,75
2019-01-10T13:12:04.750Z,75
2019-01-10T13:13:05.171Z,70
2019-01-10T13:14:10.372Z,70
2019-01-10T13:15:05.119Z,60
2019-01-10T13:16:04.953Z,55
2019-01-10T13:17:05.079Z,50
2019-01-10T13:18:05.063Z,50
2019-01-10T13:19:05.038Z,50
2019-01-10T13:20:05.019Z,50
2019-01-10T13:21:04.997Z,50
2019-01-10T13:22:04.729Z,50
2019-01-10T13:23:04.708Z,55
2019-01-10T13:24:04.689Z,65
2019-01-10T13:25:04.661Z,60
2019-01-10T13:26:09.323Z,65
2019-01-10T13:27:04.877Z,60
2019-01-10T13:28:06.285Z,60
2019-01-10T13:29:04.584Z,55
2019-01-10T13:30:04.563Z,45
2019-01-10T13:31:04.801Z,40
2019-01-10T13:32:04.787Z,40
2019-01-10T13:33:04.505Z,40
2019-01-10T13:34:04.741Z,40
2019-01-10T13:35:04.618Z,35
2019-01-10T13:36:04.739Z,40
2019-01-10T13:37:04.677Z,40
2019-01-10T13:38:04.650Z,45
2019-01-10T13:39:04.722Z,50
2019-01-10T13:40:04.614Z,55
2019-01-10T13:41:04.607Z,55
2019-01-10T13:42:04.569Z,60
2019-01-10T13:43:04.324Z,50
2019-01-10T13:44:04.530Z,55
2019-01-10T13:45:04.516Z,55
2019-01-10T13:46:05.048Z,50
2019-01-10T13:47:05.098Z,45
2019-01-10T13:48:04.441Z,45
2019-01-10T13:49:04.181Z,45
2019-01-10T13:50:11.177Z,45
2019-01-10T13:51:05.217Z,50
2019-01-10T13:52:04.367Z,45
2019-01-10T13:53:04.340Z,40
2019-01-10T13:54:04.319Z,40
2019-01-10T13:55:04.359Z,40
2019-01-10T13:56:05.242Z,45
2019-01-10T13:57:04.262Z,40
2019-01-10T13:58:04.339Z,40
2019-01-10T13:59:04.219Z,40
2019-01-10T14:00:04.221Z,40
2019-01-10T14:01:03.679Z,40
2019-01-10T14:02:03.911Z,35
2019-01-10T14:03:03.641Z,35
2019-01-10T14:04:03.868Z,35
2019-01-10T14:05:04.102Z,35
2019-01-10T14:06:04.075Z,40
2019-01-10T14:07:04.060Z,40
2019-01-10T14:08:03.812Z,40
2019-01-10T14:09:04.018Z,40
2019-01-10T14:10:03.755Z,40
2019-01-10T14:11:03.727Z,35
2019-01-10T14:12:03.959Z,30
2019-01-10T14:13:03.929Z,30
2019-01-10T14:14:03.661Z,30
2019-01-10T14:15:03.894Z,30
2019-01-10T14:16:03.870Z,30
2019-01-10T14:17:09.028Z,25
2019-01-10T14:18:03.835Z,25
2019-01-10T14:19:03.564Z,25
2019-01-10T14:20:03.796Z,25
2019-01-10T14:21:03.820Z,30
2019-01-10T14:22:03.493Z,30
2019-01-10T14:23:03.734Z,30
2019-01-10T14:24:03.711Z,30
2019-01-10T14:25:03.687Z,25
2019-01-10T14:26:03.659Z,25
2019-01-10T14:27:03.387Z,30
2019-01-10T14:28:09.253Z,30
2019-01-10T14:29:03.601Z,25